Time;durP1;ratioP1;P1;durP2;ratioP2;P2;SDS_P1;SDS_P2;PMS_P1;PMS_P2;Temp;Humidity;BMP_temperature;BMP_pressure;BME280_temperature;BME280_humidity;BME280_pressure;Samples;Min_cycle;Max_cycle;Signal;HPM_P1;HPM_P2
2023/03/08 00:00:42;;;;;;;16.55;13.88;;;;;;;8.51;53.06;94070.56;5117011;28;20203;-70
2023/03/08 00:03:12;;;;;;;15.35;13.48;;;;;;;8.47;53.07;94071.66;5117221;28;20503;-71
2023/03/08 00:05:41;;;;;;;15.00;13.40;;;;;;;8.44;52.84;94071.19;5117490;28;20216;-70
2023/03/08 00:08:07;;;;;;;16.98;13.27;;;;;;;8.43;53.43;94075.13;5116968;28;20206;-70
2023/03/08 00:10:34;;;;;;;14.77;13.25;;;;;;;8.38;53.79;94078.13;5117761;28;20200;-70
2023/03/08 00:13:01;;;;;;;15.45;12.80;;;;;;;8.32;53.62;94071.34;5117128;28;20196;-69
2023/03/08 00:15:28;;;;;;;18.02;15.43;;;;;;;8.26;54.21;94085.72;5117087;28;20202;-70
2023/03/08 00:17:54;;;;;;;20.85;16.60;;;;;;;8.21;54.39;94081.31;5117727;28;20199;-70
2023/03/08 00:20:21;;;;;;;23.95;18.58;;;;;;;8.08;54.57;94072.41;5117155;28;20188;-70
2023/03/08 00:22:49;;;;;;;20.13;17.27;;;;;;;7.99;55.15;94088.34;5117460;28;20267;-70
2023/03/08 00:25:16;;;;;;;16.23;13.63;;;;;;;7.99;54.92;94082.00;5117037;28;20212;-70
2023/03/08 00:27:43;;;;;;;23.63;17.50;;;;;;;7.96;55.11;94083.56;5118498;28;20211;-69
2023/03/08 00:30:12;;;;;;;23.70;17.40;;;;;;;7.93;55.24;94089.75;5118878;28;20195;-69
2023/03/08 00:32:39;;;;;;;26.33;19.58;;;;;;;7.87;55.18;94077.47;5117296;28;20198;-69
2023/03/08 00:35:06;;;;;;;22.52;16.73;;;;;;;7.78;55.52;94074.16;5119350;28;20176;-69
2023/03/08 00:37:33;;;;;;;19.88;15.73;;;;;;;7.67;55.84;94071.16;5118591;28;20205;-69
2023/03/08 00:40:01;;;;;;;20.77;15.18;;;;;;;7.69;55.75;94074.31;5116565;28;20215;-69
2023/03/08 00:42:28;;;;;;;18.88;14.05;;;;;;;7.77;55.60;94075.28;5116936;28;20234;-69
2023/03/08 00:44:55;;;;;;;15.15;13.55;;;;;;;7.78;55.61;94066.69;5117126;28;20531;-70
2023/03/08 00:47:21;;;;;;;19.38;17.10;;;;;;;7.77;55.52;94067.03;5116634;28;20187;-70
2023/03/08 00:49:48;;;;;;;29.02;20.45;;;;;;;7.71;56.07;94075.56;5117028;28;20199;-69
2023/03/08 00:52:15;;;;;;;31.67;21.98;;;;;;;7.57;56.02;94077.22;5117630;28;20191;-70
2023/03/08 00:54:42;;;;;;;31.05;23.48;;;;;;;7.50;56.51;94071.56;5117307;28;20242;-69
2023/03/08 00:57:10;;;;;;;32.03;23.60;;;;;;;7.48;56.69;94069.19;5117406;28;20192;-70
2023/03/08 00:59:37;;;;;;;35.70;25.92;;;;;;;7.47;56.65;94068.34;5116349;28;20203;-70
2023/03/08 01:02:04;;;;;;;35.22;26.77;;;;;;;7.35;57.25;94078.66;5117499;28;20199;-69
2023/03/08 01:04:32;;;;;;;35.95;28.17;;;;;;;7.20;57.69;94074.78;5116874;28;20199;-69
2023/03/08 01:07:00;;;;;;;31.60;23.80;;;;;;;7.06;57.72;94085.41;5116707;28;20195;-69
2023/03/08 01:09:27;;;;;;;30.83;23.92;;;;;;;7.01;57.66;94081.00;5117076;28;20184;-70
2023/03/08 01:11:53;;;;;;;27.17;20.52;;;;;;;7.06;57.80;94071.72;5117266;28;20203;-70
2023/03/08 01:14:22;;;;;;;24.90;20.15;;;;;;;7.11;57.57;94074.97;5116844;28;20213;-69
2023/03/08 01:16:50;;;;;;;27.45;20.67;;;;;;;7.12;58.12;94084.78;5117412;28;20603;-70
2023/03/08 01:19:16;;;;;;;24.05;18.60;;;;;;;7.11;57.87;94079.66;5117635;28;20200;-70
2023/03/08 01:21:43;;;;;;;23.95;19.63;;;;;;;7.13;57.80;94089.13;5117142;28;20207;-70
2023/03/08 01:24:10;;;;;;;22.58;19.35;;;;;;;7.14;58.46;94079.75;5118187;28;20199;-70
2023/03/08 01:26:37;;;;;;;17.20;14.57;;;;;;;7.15;57.57;94084.09;5117706;28;20227;-70
2023/03/08 01:29:03;;;;;;;16.58;12.07;;;;;;;7.23;56.80;94090.53;5116849;28;20206;-70
2023/03/08 01:31:31;;;;;;;13.15;10.75;;;;;;;7.29;56.72;94089.09;5117089;28;20198;-70
2023/03/08 01:33:58;;;;;;;12.60;11.30;;;;;;;7.36;56.26;94080.25;5117374;28;20547;-70
2023/03/08 01:36:27;;;;;;;15.60;13.15;;;;;;;7.34;56.89;94080.63;5117615;28;20176;-70
2023/03/08 01:38:54;;;;;;;15.20;13.65;;;;;;;7.24;57.21;94081.16;5116502;28;20196;-70
2023/03/08 01:41:22;;;;;;;15.98;13.63;;;;;;;7.22;56.99;94086.97;5117901;27;20210;-70
2023/03/08 01:43:49;;;;;;;16.08;14.02;;;;;;;7.14;57.78;94087.16;5120375;27;20210;-70
2023/03/08 01:46:20;;;;;;;17.45;14.60;;;;;;;7.02;57.90;94085.31;5119236;27;20226;-70
2023/03/08 01:48:51;;;;;;;15.23;13.63;;;;;;;6.91;57.63;94090.53;5119256;27;20194;-70
2023/03/08 01:51:23;;;;;;;12.38;11.13;;;;;;;6.94;57.42;94089.03;5119496;27;20213;-70
2023/03/08 01:53:50;;;;;;;13.65;11.88;;;;;;;6.99;57.83;94078.59;5119545;27;20191;-70
2023/03/08 01:56:19;;;;;;;12.57;11.35;;;;;;;7.03;57.35;94091.59;5119026;27;20202;-70
2023/03/08 01:58:48;;;;;;;10.80;9.70;;;;;;;7.06;57.39;94091.69;5118742;27;20191;-70
2023/03/08 02:01:15;;;;;;;10.00;8.93;;;;;;;7.10;56.85;94092.56;5119344;27;20199;-70
2023/03/08 02:03:42;;;;;;;10.93;9.35;;;;;;;7.12;57.15;94079.31;5119638;27;20195;-70
2023/03/08 02:06:10;;;;;;;11.13;9.65;;;;;;;7.15;56.99;94094.25;5119378;27;20269;-70
2023/03/08 02:08:37;;;;;;;11.27;9.63;;;;;;;7.21;56.94;94087.34;5119523;27;20198;-70
2023/03/08 02:11:03;;;;;;;10.77;9.55;;;;;;;7.25;56.53;94088.22;5119028;27;20194;-70
2023/03/08 02:13:30;;;;;;;11.05;9.85;;;;;;;7.17;57.06;94084.50;5118878;27;20591;-70
2023/03/08 02:15:58;;;;;;;11.00;9.90;;;;;;;7.08;57.50;94083.91;5119275;28;20214;-70
2023/03/08 02:18:25;;;;;;;11.38;10.00;;;;;;;7.08;57.61;94083.91;5137476;28;20176;-70
2023/03/08 02:20:52;;;;;;;10.63;9.52;;;;;;;7.09;57.44;94092.94;5118830;28;20197;-70
2023/03/08 02:23:22;;;;;;;10.80;9.80;;;;;;;7.15;57.33;94086.84;5136472;28;20638;-70
2023/03/08 02:25:51;;;;;;;11.73;10.60;;;;;;;7.08;57.29;94080.34;5118555;28;20271;-70
2023/03/08 02:28:19;;;;;;;11.93;10.73;;;;;;;6.96;57.46;94084.00;5118956;28;20187;-71
2023/03/08 02:30:46;;;;;;;12.30;11.00;;;;;;;6.92;57.97;94088.59;5118398;28;20199;-70
2023/03/08 02:33:12;;;;;;;13.75;10.60;;;;;;;6.83;58.24;94097.00;5118142;28;20210;-70
2023/03/08 02:35:41;;;;;;;12.75;11.52;;;;;;;6.75;58.35;94087.81;5136351;28;20692;-70
2023/03/08 02:38:08;;;;;;;12.93;11.63;;;;;;;6.64;58.27;94097.66;5117659;28;20195;-70
2023/03/08 02:40:36;;;;;;;13.27;11.85;;;;;;;6.61;58.05;94098.38;5118067;28;20187;-70
2023/03/08 02:43:04;;;;;;;13.93;12.48;;;;;;;6.69;58.61;94107.59;5114483;28;20235;-70
2023/03/08 02:45:30;;;;;;;12.75;11.50;;;;;;;6.72;57.93;94106.88;5114535;28;20215;-69
2023/03/08 02:47:57;;;;;;;11.52;10.30;;;;;;;6.81;58.07;94115.72;5114979;28;20196;-70
2023/03/08 02:50:24;;;;;;;12.20;11.00;;;;;;;6.87;57.72;94108.06;5115049;28;20195;-70
2023/03/08 02:52:51;;;;;;;12.38;11.30;;;;;;;6.88;57.97;94107.69;5115212;28;20200;-70
2023/03/08 02:55:17;;;;;;;11.75;10.55;;;;;;;6.83;57.94;94118.94;5114914;28;20199;-70
2023/03/08 02:57:45;;;;;;;12.65;11.40;;;;;;;6.77;58.54;94109.38;5115585;28;20196;-70
2023/03/08 03:00:13;;;;;;;13.05;11.65;;;;;;;6.57;58.39;94116.66;5115679;28;20204;-70
2023/03/08 03:02:40;;;;;;;14.55;11.88;;;;;;;6.43;58.60;94113.56;5115568;28;20188;-70
2023/03/08 03:05:09;;;;;;;13.73;12.20;;;;;;;6.31;59.57;94116.34;5114814;28;20654;-70
2023/03/08 03:07:36;;;;;;;12.23;11.05;;;;;;;6.18;59.41;94119.13;5115243;28;20202;-70
2023/03/08 03:10:03;;;;;;;13.07;11.38;;;;;;;6.14;60.37;94120.19;5115199;28;20599;-70
2023/03/08 03:12:30;;;;;;;11.73;10.60;;;;;;;6.24;60.47;94120.44;5114675;28;20188;-70
2023/03/08 03:14:59;;;;;;;12.65;11.40;;;;;;;6.32;59.83;94118.75;5114084;28;20200;-70
2023/03/08 03:17:25;;;;;;;12.57;11.23;;;;;;;6.37;59.79;94120.41;5114501;28;20203;-70
2023/03/08 03:19:52;;;;;;;11.95;10.73;;;;;;;6.43;60.02;94124.50;5114160;28;20615;-70
2023/03/08 03:22:19;;;;;;;12.90;10.43;;;;;;;6.48;59.99;94118.78;5115956;28;20204;-70
2023/03/08 03:24:45;;;;;;;11.70;10.55;;;;;;;6.49;59.71;94132.09;5117920;28;20625;-70
2023/03/08 03:27:12;;;;;;;11.63;10.45;;;;;;;6.58;59.24;94118.25;5117542;28;20215;-70
2023/03/08 03:29:39;;;;;;;12.25;10.98;;;;;;;6.59;59.41;94130.03;5118155;28;20211;-70
2023/03/08 03:32:08;;;;;;;12.18;10.90;;;;;;;6.59;59.25;94135.50;5118420;28;20200;-70
2023/03/08 03:34:34;;;;;;;11.80;10.65;;;;;;;6.63;59.08;94126.22;5117867;28;20200;-70
2023/03/08 03:37:01;;;;;;;24.33;16.33;;;;;;;6.61;58.71;94141.41;5118244;28;20203;-70
2023/03/08 03:39:32;;;;;;;14.73;11.15;;;;;;;6.57;59.01;94129.56;5118042;28;20203;-69
2023/03/08 03:41:59;;;;;;;14.13;12.40;;;;;;;6.55;59.39;94140.88;5117862;28;20561;-70
2023/03/08 03:44:28;;;;;;;10.68;9.60;;;;;;;6.56;59.45;94128.75;5117828;28;20537;-70
2023/03/08 03:46:55;;;;;;;12.40;11.10;;;;;;;6.61;59.01;94144.97;5117440;28;20218;-70
2023/03/08 03:49:23;;;;;;;10.60;9.57;;;;;;;6.51;59.42;94140.78;5117310;28;20206;-70
2023/03/08 03:51:50;;;;;;;13.35;11.45;;;;;;;6.59;59.24;94136.28;5118105;28;20531;-70
2023/03/08 03:54:17;;;;;;;12.63;11.32;;;;;;;6.53;59.08;94134.94;5117447;28;20200;-70
2023/03/08 03:56:44;;;;;;;11.20;10.10;;;;;;;6.48;59.04;94135.22;5117785;28;20611;-70
2023/03/08 03:59:11;;;;;;;11.82;10.52;;;;;;;6.46;59.30;94140.22;5117798;28;20721;-70
2023/03/08 04:01:38;;;;;;;11.77;10.57;;;;;;;6.43;59.75;94144.47;5117643;28;20196;-72
2023/03/08 04:04:05;;;;;;;14.18;11.57;;;;;;;6.36;59.49;94143.47;5117411;28;20204;-70
2023/03/08 04:06:34;;;;;;;12.68;11.48;;;;;;;6.36;59.78;94147.00;5117315;28;20227;-70
2023/03/08 04:09:03;;;;;;;12.70;11.32;;;;;;;6.31;60.12;94149.97;5116758;28;20211;-70
2023/03/08 04:11:33;;;;;;;12.52;11.23;;;;;;;6.27;59.73;94138.94;5117800;28;20202;-70
2023/03/08 04:14:20;;;;;;;13.40;12.10;;;;;;;6.27;59.85;94154.56;5117652;28;20332;-70
2023/03/08 04:17:07;;;;;;;14.50;13.00;;;;;;;6.23;59.81;94151.72;5117304;28;20199;-70
2023/03/08 04:19:38;;;;;;;15.05;13.48;;;;;;;6.17;60.21;94150.41;5117374;28;20515;-68
2023/03/08 04:22:06;;;;;;;17.05;14.63;;;;;;;6.09;60.16;94153.25;5116605;28;20183;-70
2023/03/08 04:24:33;;;;;;;16.25;13.18;;;;;;;6.09;60.51;94165.00;5116948;28;20367;-70
2023/03/08 04:27:00;;;;;;;16.63;13.70;;;;;;;6.11;61.16;94160.00;5117408;28;20215;-70
2023/03/08 04:29:27;;;;;;;15.18;13.10;;;;;;;6.17;60.60;94166.00;5117065;28;20203;-70
2023/03/08 04:31:58;;;;;;;13.80;12.40;;;;;;;6.20;60.75;94152.41;5116452;28;20192;-70
2023/03/08 04:34:25;;;;;;;14.18;12.23;;;;;;;6.20;60.35;94160.63;5115486;28;20540;-69
2023/03/08 04:36:52;;;;;;;13.73;12.32;;;;;;;6.21;60.63;94161.44;5116231;28;20534;-70
2023/03/08 04:39:20;;;;;;;14.05;12.75;;;;;;;6.18;61.07;94162.16;5116484;28;20207;-70
2023/03/08 04:41:47;;;;;;;14.98;12.45;;;;;;;6.14;60.83;94159.31;5116359;28;20239;-70
2023/03/08 04:44:14;;;;;;;13.95;12.55;;;;;;;6.16;60.66;94154.25;5116399;28;20631;-70
2023/03/08 04:46:40;;;;;;;13.85;12.55;;;;;;;6.16;60.62;94161.69;5116455;28;20216;-70
2023/03/08 04:49:07;;;;;;;15.85;14.02;;;;;;;6.14;60.74;94158.50;5116656;28;20276;-70
2023/03/08 04:51:34;;;;;;;14.73;13.20;;;;;;;6.06;61.09;94162.94;5116034;28;20203;-70
2023/03/08 04:54:03;;;;;;;14.38;12.85;;;;;;;5.97;61.60;94167.78;5117126;28;20196;-70
2023/03/08 04:56:31;;;;;;;14.63;13.10;;;;;;;5.99;61.47;94177.25;5116417;28;20187;-70
2023/03/08 04:58:57;;;;;;;14.55;12.70;;;;;;;6.05;61.67;94174.25;5116235;28;20199;-70
2023/03/08 05:01:24;;;;;;;15.60;13.98;;;;;;;5.96;61.74;94166.97;5117249;28;20195;-72
2023/03/08 05:03:52;;;;;;;16.20;14.20;;;;;;;5.96;61.82;94172.47;5117091;28;20184;-70
2023/03/08 05:06:20;;;;;;;17.33;15.63;;;;;;;5.92;61.77;94181.66;5117422;28;20215;-73
2023/03/08 05:08:46;;;;;;;17.73;16.10;;;;;;;5.94;61.67;94180.22;5117477;28;20292;-70
2023/03/08 05:11:17;;;;;;;21.40;17.92;;;;;;;6.01;61.73;94190.56;5118028;28;20213;-70
2023/03/08 05:13:45;;;;;;;19.65;17.63;;;;;;;6.05;62.04;94201.63;5116451;28;20203;-71
2023/03/08 05:16:12;;;;;;;18.83;16.95;;;;;;;6.10;62.10;94202.22;5115714;28;20199;-72
2023/03/08 05:18:39;;;;;;;19.60;16.90;;;;;;;6.09;61.64;94205.28;5115706;28;20200;-71
2023/03/08 05:21:10;;;;;;;20.92;16.50;;;;;;;6.09;62.19;94206.06;5115640;28;20650;-71
2023/03/08 05:23:37;;;;;;;19.45;16.02;;;;;;;6.17;62.39;94204.34;5115590;28;20199;-72
2023/03/08 05:26:06;;;;;;;16.20;14.48;;;;;;;6.18;62.01;94206.75;5115445;28;20199;-72
2023/03/08 05:28:35;;;;;;;16.13;13.70;;;;;;;6.22;61.65;94218.59;5115931;28;20290;-72
2023/03/08 05:31:05;;;;;;;15.50;13.90;;;;;;;6.24;62.00;94219.03;5115268;28;20188;-71
2023/03/08 05:33:32;;;;;;;15.18;13.57;;;;;;;6.25;61.96;94220.66;5115770;28;20592;-70
2023/03/08 05:35:59;;;;;;;16.45;12.60;;;;;;;6.26;61.67;94224.97;5116419;28;20199;-71
2023/03/08 05:38:26;;;;;;;15.90;12.88;;;;;;;6.27;62.12;94231.25;5116745;28;20199;-70
2023/03/08 05:40:52;;;;;;;21.63;16.40;;;;;;;6.23;62.16;94231.13;5116062;28;20204;-71
2023/03/08 05:43:20;;;;;;;21.08;17.88;;;;;;;6.13;63.16;94223.41;5115065;28;20236;-73
2023/03/08 05:45:55;;;;;;;20.75;16.08;;;;;;;6.06;63.03;94228.66;5115186;28;20215;-71
2023/03/08 05:48:23;;;;;;;26.77;17.20;;;;;;;6.03;63.33;94229.38;5115739;28;20219;-71
2023/03/08 05:50:50;;;;;;;22.38;16.88;;;;;;;5.96;63.70;94231.88;5117464;28;20196;-71
2023/03/08 05:53:17;;;;;;;20.63;15.77;;;;;;;5.93;63.43;94230.63;5116633;28;20210;-71
2023/03/08 05:55:44;;;;;;;18.73;15.13;;;;;;;5.96;63.37;94235.41;5117559;28;20196;-70
2023/03/08 05:58:10;;;;;;;20.00;15.60;;;;;;;6.00;63.27;94235.53;5116399;28;20192;-70
2023/03/08 06:00:37;;;;;;;22.90;18.73;;;;;;;5.94;63.52;94240.41;5115495;28;20199;-70
2023/03/08 06:03:04;;;;;;;28.23;22.42;;;;;;;5.96;63.20;94238.16;5115133;28;20195;-70
2023/03/08 06:05:32;;;;;;;24.20;21.02;;;;;;;6.01;63.35;94242.59;5115900;28;20196;-70
2023/03/08 06:07:59;;;;;;;22.42;19.42;;;;;;;6.11;63.47;94247.59;5115495;28;20211;-69
2023/03/08 06:10:26;;;;;;;22.90;18.00;;;;;;;6.19;63.17;94248.63;5116277;28;20213;-70
2023/03/08 06:12:53;;;;;;;23.60;18.83;;;;;;;6.30;62.87;94248.94;5115598;28;20203;-70
2023/03/08 06:15:20;;;;;;;24.45;20.52;;;;;;;6.43;63.15;94248.56;5115405;28;20192;-70
2023/03/08 06:17:46;;;;;;;14.82;13.23;;;;;;;6.54;62.97;94257.09;5115346;28;20196;-70
2023/03/08 06:20:15;;;;;;;18.13;14.35;;;;;;;6.64;63.03;94261.28;5115969;28;20195;-70
2023/03/08 06:22:43;;;;;;;13.88;12.48;;;;;;;6.78;62.75;94258.16;5115719;28;20275;-70
2023/03/08 06:25:10;;;;;;;16.42;14.30;;;;;;;6.91;62.31;94257.75;5115502;28;20192;-70
2023/03/08 06:27:37;;;;;;;20.45;18.25;;;;;;;6.98;62.37;94263.44;5116032;28;20211;-69
2023/03/08 06:30:04;;;;;;;17.55;15.73;;;;;;;7.13;61.84;94261.09;5116662;28;20191;-69
2023/03/08 06:32:31;;;;;;;11.50;9.98;;;;;;;7.21;61.51;94262.88;5115235;28;20195;-69
2023/03/08 06:34:57;;;;;;;11.05;9.95;;;;;;;7.28;61.32;94268.53;5115286;28;20210;-69
2023/03/08 06:37:24;;;;;;;10.68;9.52;;;;;;;7.37;60.86;94263.72;5115206;28;20191;-69
2023/03/08 06:39:52;;;;;;;11.45;9.75;;;;;;;7.41;60.51;94277.53;5114748;28;20188;-70
2023/03/08 06:42:19;;;;;;;9.52;8.40;;;;;;;7.43;60.95;94280.69;5115171;28;20232;-69
2023/03/08 06:44:46;;;;;;;12.45;9.68;;;;;;;7.47;61.00;94287.84;5116368;28;20203;-70
2023/03/08 06:47:13;;;;;;;11.65;8.20;;;;;;;7.56;60.25;94289.66;5115202;28;20211;-69
2023/03/08 06:49:40;;;;;;;10.00;8.50;;;;;;;7.61;60.57;94295.66;5116829;28;20196;-69
2023/03/08 06:52:07;;;;;;;10.02;8.05;;;;;;;7.68;60.20;94295.06;5114747;28;20226;-70
2023/03/08 06:54:34;;;;;;;12.75;8.77;;;;;;;7.75;59.52;94297.19;5115724;28;20188;-70
2023/03/08 06:57:02;;;;;;;10.82;9.02;;;;;;;7.80;60.54;94303.19;5115038;28;20199;-70
2023/03/08 06:59:29;;;;;;;10.32;8.98;;;;;;;7.98;60.45;94311.88;5118887;28;20207;-70
2023/03/08 07:01:56;;;;;;;9.48;8.50;;;;;;;8.15;60.39;94310.75;5118409;28;20188;-71
2023/03/08 07:04:22;;;;;;;10.77;9.77;;;;;;;8.31;59.95;94303.25;5119009;28;20200;-71
2023/03/08 07:06:49;;;;;;;10.70;9.57;;;;;;;8.38;59.77;94311.69;5118588;28;20226;-71
2023/03/08 07:09:16;;;;;;;14.57;10.98;;;;;;;8.46;59.74;94309.13;5118581;28;20214;-71
2023/03/08 07:11:43;;;;;;;13.23;10.55;;;;;;;8.54;59.48;94314.44;5118389;28;20615;-71
2023/03/08 07:14:11;;;;;;;12.00;10.57;;;;;;;8.60;59.18;94315.72;5117816;28;20204;-70
2023/03/08 07:16:37;;;;;;;11.43;10.18;;;;;;;8.61;58.61;94313.81;5118812;28;20195;-71
2023/03/08 07:19:04;;;;;;;11.95;10.10;;;;;;;8.56;57.95;94317.59;5118262;28;20633;-71
2023/03/08 07:21:50;;;;;;;11.70;10.52;;;;;;;8.54;59.06;94321.88;5117855;28;20200;-71
2023/03/08 07:24:16;;;;;;;11.50;9.98;;;;;;;8.60;59.12;94309.44;5118693;28;20611;-71
2023/03/08 07:26:43;;;;;;;10.20;8.98;;;;;;;8.69;58.16;94315.56;5118371;28;20268;-71
2023/03/08 07:29:11;;;;;;;15.32;10.82;;;;;;;8.80;58.70;94313.03;5118667;28;20203;-70
2023/03/08 07:31:38;;;;;;;11.80;10.10;;;;;;;8.88;57.83;94312.81;5118118;28;20200;-70
2023/03/08 07:34:05;;;;;;;11.80;9.30;;;;;;;8.90;58.04;94318.78;5117885;28;20203;-71
2023/03/08 07:36:33;;;;;;;12.32;9.63;;;;;;;8.94;57.75;94315.31;5118904;28;20172;-70
2023/03/08 07:38:59;;;;;;;14.32;9.13;;;;;;;8.98;58.04;94319.72;5118128;28;20188;-70
2023/03/08 07:41:29;;;;;;;10.27;8.93;;;;;;;9.02;57.65;94317.03;5120596;27;20206;-70
2023/03/08 07:43:56;;;;;;;10.20;9.20;;;;;;;9.04;57.78;94315.53;5121200;27;20183;-70
2023/03/08 07:46:24;;;;;;;11.65;9.60;;;;;;;9.12;57.84;94320.00;5121012;27;20205;-70
2023/03/08 07:48:52;;;;;;;11.18;9.35;;;;;;;9.20;56.94;94309.16;5121035;27;20214;-71
2023/03/08 07:51:19;;;;;;;9.70;8.70;;;;;;;9.26;57.39;94318.69;5121381;27;20217;-70
2023/03/08 07:53:45;;;;;;;10.63;9.15;;;;;;;9.31;57.11;94319.19;5120923;27;20215;-70
2023/03/08 07:56:12;;;;;;;10.10;8.55;;;;;;;9.38;57.04;94321.31;5120651;27;20198;-70
2023/03/08 07:58:39;;;;;;;9.88;8.65;;;;;;;9.44;57.25;94314.34;5121330;27;20217;-70
2023/03/08 08:01:08;;;;;;;11.10;8.50;;;;;;;9.51;56.64;94308.97;5120630;27;20199;-70
2023/03/08 08:03:37;;;;;;;10.63;9.40;;;;;;;9.53;56.32;94317.66;5120434;27;20219;-71
2023/03/08 08:06:04;;;;;;;10.77;9.15;;;;;;;9.59;56.58;94320.94;5120763;27;20194;-70
2023/03/08 08:08:31;;;;;;;10.25;9.25;;;;;;;9.58;56.39;94317.34;5138096;27;20235;-69
2023/03/08 08:10:58;;;;;;;10.02;9.02;;;;;;;9.60;56.08;94319.75;5138618;27;20202;-70
2023/03/08 08:13:25;;;;;;;12.82;9.27;;;;;;;9.61;56.52;94319.38;5120700;27;20182;-70
2023/03/08 08:15:58;;;;;;;11.63;9.52;;;;;;;9.68;56.35;94323.44;5120463;27;20198;-70
2023/03/08 08:18:25;;;;;;;12.27;8.77;;;;;;;9.70;56.22;94326.63;5120828;27;20199;-70
2023/03/08 08:20:59;;;;;;;11.70;8.45;;;;;;;9.75;55.94;94327.13;5120439;27;20195;-70
2023/03/08 08:23:26;;;;;;;10.80;9.10;;;;;;;9.82;56.05;94326.44;5119984;27;20222;-70
2023/03/08 08:25:53;;;;;;;9.80;8.80;;;;;;;9.77;55.37;94329.53;5120334;27;20187;-70
2023/03/08 08:28:20;;;;;;;11.32;9.10;;;;;;;9.84;55.71;94330.44;5120311;27;20218;-70
2023/03/08 08:30:55;;;;;;;9.27;8.43;;;;;;;9.89;55.75;94332.09;5120379;27;20293;-70
2023/03/08 08:33:22;;;;;;;11.15;9.52;;;;;;;9.94;55.15;94336.50;5120233;27;20199;-70
2023/03/08 08:35:49;;;;;;;10.88;9.48;;;;;;;9.99;55.56;94328.72;5120193;27;20195;-70
2023/03/08 08:38:17;;;;;;;13.30;8.70;;;;;;;10.10;56.18;94334.44;5119679;27;20206;-70
2023/03/08 08:40:44;;;;;;;8.65;7.72;;;;;;;10.19;55.61;94323.16;5120284;27;20199;-70
2023/03/08 08:43:10;;;;;;;9.43;8.50;;;;;;;10.31;54.93;94326.56;5137711;27;20234;-70
2023/03/08 08:45:37;;;;;;;13.90;8.73;;;;;;;10.40;55.38;94329.03;5138231;27;20218;-71
2023/03/08 08:48:04;;;;;;;9.10;8.15;;;;;;;10.53;55.41;94322.16;5136873;27;20219;-71
2023/03/08 08:50:31;;;;;;;13.23;8.45;;;;;;;10.62;54.91;94315.59;5120607;27;20187;-71
2023/03/08 08:52:58;;;;;;;10.85;8.73;;;;;;;10.61;53.77;94314.78;5119947;27;20191;-71
2023/03/08 08:55:26;;;;;;;10.10;9.10;;;;;;;10.58;54.31;94327.34;5137941;27;20194;-70
2023/03/08 08:57:53;;;;;;;11.32;8.10;;;;;;;10.66;54.02;94322.75;5119423;27;20553;-70
2023/03/08 09:00:20;;;;;;;11.18;9.18;;;;;;;10.73;53.84;94322.84;5120082;27;20191;-70
2023/03/08 09:02:47;;;;;;;14.25;9.13;;;;;;;10.72;53.09;94326.78;5120162;27;20199;-70
2023/03/08 09:05:13;;;;;;;11.05;9.98;;;;;;;10.67;52.87;94327.06;5119731;27;20198;-70
2023/03/08 09:07:40;;;;;;;11.57;10.20;;;;;;;10.65;53.40;94317.59;5119507;27;20570;-70
2023/03/08 09:10:09;;;;;;;12.88;10.95;;;;;;;10.66;53.77;94321.94;5119143;27;20198;-70
2023/03/08 09:12:37;;;;;;;13.57;10.00;;;;;;;10.66;53.62;94322.75;5119918;27;20190;-70
2023/03/08 09:15:05;;;;;;;12.30;10.30;;;;;;;10.68;53.87;94322.38;5118964;27;20199;-70
2023/03/08 09:17:32;;;;;;;10.95;9.18;;;;;;;10.69;54.29;94316.47;5118976;27;20237;-70
2023/03/08 09:19:58;;;;;;;11.48;9.60;;;;;;;10.71;53.21;94308.66;5118794;27;20367;-70
2023/03/08 09:22:26;;;;;;;14.40;9.40;;;;;;;10.74;54.37;94315.34;5118904;27;20195;-70
2023/03/08 09:24:53;;;;;;;11.77;9.80;;;;;;;10.83;54.15;94315.91;5119769;27;20195;-70
2023/03/08 09:27:19;;;;;;;11.50;10.25;;;;;;;10.99;55.03;94307.44;5119158;27;20191;-70
2023/03/08 09:29:47;;;;;;;11.32;9.65;;;;;;;11.11;54.51;94309.97;5136651;27;20620;-70
2023/03/08 09:32:14;;;;;;;11.77;10.10;;;;;;;11.18;52.89;94312.78;5118980;27;20205;-70
2023/03/08 09:34:42;;;;;;;11.38;10.18;;;;;;;11.22;53.41;94307.31;5118846;27;20191;-70
2023/03/08 09:37:10;;;;;;;11.68;10.50;;;;;;;11.33;53.55;94302.75;5119343;27;20202;-70
2023/03/08 09:39:39;;;;;;;14.77;10.45;;;;;;;11.50;52.09;94302.16;5118769;27;20252;-70
2023/03/08 09:42:07;;;;;;;11.65;10.07;;;;;;;11.51;52.35;94302.94;5118533;27;20238;-70
2023/03/08 09:44:52;;;;;;;15.70;10.77;;;;;;;11.73;53.71;94296.50;5119136;27;20195;-70
2023/03/08 09:47:28;;;;;;;10.77;9.68;;;;;;;11.98;52.35;94298.72;5118715;27;20191;-70
2023/03/08 09:49:58;;;;;;;12.23;10.15;;;;;;;12.24;52.56;94295.03;5118623;27;20195;-70
2023/03/08 09:52:29;;;;;;;13.18;9.80;;;;;;;12.63;52.55;94286.22;5119234;27;20187;-70
2023/03/08 09:54:58;;;;;;;13.95;10.07;;;;;;;12.94;52.23;94282.84;5118247;27;20202;-70
2023/03/08 09:57:29;;;;;;;13.45;11.05;;;;;;;13.17;49.97;94276.25;5118777;27;20187;-70
2023/03/08 09:59:58;;;;;;;11.82;9.05;;;;;;;13.31;50.04;94273.56;5118460;27;20592;-70
2023/03/08 10:02:32;;;;;;;11.93;8.90;;;;;;;13.41;49.13;94274.78;5118412;27;20252;-70
2023/03/08 10:05:04;;;;;;;10.07;8.65;;;;;;;13.53;48.19;94276.41;5118175;27;20222;-70
2023/03/08 10:07:41;;;;;;;10.05;8.25;;;;;;;13.66;48.85;94281.22;5118554;27;20191;-70
2023/03/08 10:10:22;;;;;;;12.70;7.85;;;;;;;13.83;47.70;94282.41;5118261;27;20198;-70
2023/03/08 10:12:59;;;;;;;8.07;7.05;;;;;;;13.74;49.19;94279.25;5118605;27;20241;-70
2023/03/08 10:15:28;;;;;;;8.02;7.22;;;;;;;13.79;47.66;94278.84;5136368;27;20193;-70
2023/03/08 10:17:58;;;;;;;7.10;6.50;;;;;;;13.82;47.50;94271.75;5118367;28;20191;-70
2023/03/08 10:20:26;;;;;;;8.30;6.65;;;;;;;13.72;45.60;94263.03;5136523;27;20182;-70
2023/03/08 10:22:58;;;;;;;8.55;5.90;;;;;;;13.96;48.65;94263.44;5118446;27;20202;-70
2023/03/08 10:25:27;;;;;;;7.22;6.47;;;;;;;14.18;46.64;94259.50;5118476;28;20187;-70
2023/03/08 10:27:55;;;;;;;7.70;6.32;;;;;;;14.15;47.07;94263.06;5118146;28;20223;-70
2023/03/08 10:30:24;;;;;;;6.68;5.95;;;;;;;14.11;46.66;94264.25;5118405;28;20210;-70
2023/03/08 10:32:57;;;;;;;5.75;4.78;;;;;;;13.98;45.22;94263.84;5138618;27;20192;-70
2023/03/08 10:35:36;;;;;;;6.00;5.03;;;;;;;13.83;45.27;94268.56;5122186;27;20195;-70
2023/03/08 10:38:03;;;;;;;8.38;5.05;;;;;;;13.66;44.81;94261.81;5140098;27;20200;-70
2023/03/08 10:40:30;;;;;;;5.90;4.63;;;;;;;13.65;45.31;94260.22;5122642;27;20203;-70
2023/03/08 10:43:00;;;;;;;5.47;4.90;;;;;;;13.62;44.50;94257.44;5140346;27;20231;-70
2023/03/08 10:45:28;;;;;;;5.88;4.57;;;;;;;13.66;45.50;94255.47;5122504;27;20205;-70
2023/03/08 10:47:58;;;;;;;5.45;4.40;;;;;;;13.60;44.58;94251.50;5122479;27;20222;-70
2023/03/08 10:50:27;;;;;;;4.93;4.45;;;;;;;13.49;45.40;94249.50;5140416;27;20220;-70
2023/03/08 10:52:54;;;;;;;5.55;4.78;;;;;;;13.49;45.37;94248.69;5122719;27;20199;-70
2023/03/08 10:55:22;;;;;;;5.25;3.90;;;;;;;13.55;46.18;94246.34;5122374;27;20199;-70
2023/03/08 10:57:52;;;;;;;6.90;4.03;;;;;;;13.61;45.76;94248.31;5122426;27;20195;-70
2023/03/08 11:00:33;;;;;;;6.10;4.07;;;;;;;13.67;44.92;94243.22;5121962;27;20199;-70
2023/03/08 11:03:20;;;;;;;3.50;3.20;;;;;;;13.70;44.17;94245.97;5122326;27;20599;-70
2023/03/08 11:05:56;;;;;;;5.45;2.90;;;;;;;13.61;42.46;94239.22;5121849;27;20258;-70
2023/03/08 11:08:24;;;;;;;3.30;3.00;;;;;;;13.60;42.53;94237.66;5121731;27;20218;-70
2023/03/08 11:11:01;;;;;;;2.58;1.90;;;;;;;13.57;41.17;94227.34;5139890;27;20210;-70
2023/03/08 11:13:30;;;;;;;2.10;1.90;;;;;;;13.64;41.43;94225.38;5139572;27;20190;-71
2023/03/08 11:16:07;;;;;;;2.47;2.05;;;;;;;13.79;41.49;94228.19;5121653;27;20244;-71
2023/03/08 11:18:44;;;;;;;3.03;1.90;;;;;;;13.98;40.34;94219.50;5121662;27;20622;-71
2023/03/08 11:21:19;;;;;;;1.70;1.60;;;;;;;14.20;40.11;94210.00;5123103;27;20198;-69
2023/03/08 11:23:49;;;;;;;2.30;1.83;;;;;;;14.20;39.51;94201.66;5123489;27;20187;-69
2023/03/08 11:26:22;;;;;;;2.22;2.03;;;;;;;14.17;40.06;94201.69;5123190;27;20199;-69
2023/03/08 11:28:56;;;;;;;2.70;2.03;;;;;;;14.21;39.78;94191.38;5122707;27;20215;-69
2023/03/08 11:31:29;;;;;;;1.77;1.55;;;;;;;14.18;39.00;94194.94;5123226;27;20187;-69